sensor_id;sensor_type;location;lat;lon;timestamp;pressure;altitude;pressure_sealevel;temperature;humidity
13456;BME280;6800;50.940;6.940;2023-04-06T00:02:24;101085.09;;;15.79;31.63
13456;BME280;6800;50.940;6.940;2023-04-06T00:06:26;101084.56;;;15.74;31.42
13456;BME280;6800;50.940;6.940;2023-04-06T00:10:28;101074.94;;;15.62;31.34
13456;BME280;6800;50.940;6.940;2023-04-06T00:14:29;101085.25;;;15.52;31.67
13456;BME280;6800;50.940;6.940;2023-04-06T00:18:31;101083.06;;;15.21;31.05
13456;BME280;6800;50.940;6.940;2023-04-06T00:22:33;101082.53;;;15.04;31.13
13456;BME280;6800;50.940;6.940;2023-04-06T00:26:34;101079.41;;;14.99;31.22
13456;BME280;6800;50.940;6.940;2023-04-06T00:30:36;101073.72;;;15.05;32.18
13456;BME280;6800;50.940;6.940;2023-04-06T00:34:37;101072.56;;;15.21;32.01
13456;BME280;6800;50.940;6.940;2023-04-06T00:38:39;101067.41;;;15.20;31.82
13456;BME280;6800;50.940;6.940;2023-04-06T00:42:41;101061.53;;;15.16;32.60
13456;BME280;6800;50.940;6.940;2023-04-06T00:46:42;101070.75;;;15.22;32.69
13456;BME280;6800;50.940;6.940;2023-04-06T00:50:44;101063.19;;;15.17;33.11
13456;BME280;6800;50.940;6.940;2023-04-06T00:54:45;101055.88;;;14.97;32.86
13456;BME280;6800;50.940;6.940;2023-04-06T00:58:47;101050.38;;;14.88;32.67
13456;BME280;6800;50.940;6.940;2023-04-06T01:02:48;101045.44;;;14.83;32.85
13456;BME280;6800;50.940;6.940;2023-04-06T01:06:50;101041.97;;;15.08;32.63
13456;BME280;6800;50.940;6.940;2023-04-06T01:10:52;101025.13;;;15.10;32.45
13456;BME280;6800;50.940;6.940;2023-04-06T01:14:53;101027.00;;;15.08;32.28
13456;BME280;6800;50.940;6.940;2023-04-06T01:18:55;101020.72;;;15.11;32.43
13456;BME280;6800;50.940;6.940;2023-04-06T01:22:56;101011.66;;;15.02;32.46
13456;BME280;6800;50.940;6.940;2023-04-06T01:26:58;101013.38;;;14.91;32.46
13456;BME280;6800;50.940;6.940;2023-04-06T01:30:59;101009.56;;;15.07;32.44
13456;BME280;6800;50.940;6.940;2023-04-06T01:35:01;101007.47;;;15.00;32.84
13456;BME280;6800;50.940;6.940;2023-04-06T01:39:02;101002.03;;;14.90;32.66
13456;BME280;6800;50.940;6.940;2023-04-06T01:43:04;101000.75;;;14.83;33.13
13456;BME280;6800;50.940;6.940;2023-04-06T01:47:05;100998.13;;;14.83;32.91
13456;BME280;6800;50.940;6.940;2023-04-06T01:51:07;100995.31;;;14.48;33.17
13456;BME280;6800;50.940;6.940;2023-04-06T01:55:08;101002.34;;;14.60;32.45
13456;BME280;6800;50.940;6.940;2023-04-06T01:59:09;101000.88;;;14.69;32.45
13456;BME280;6800;50.940;6.940;2023-04-06T02:03:11;100992.47;;;14.64;32.43
13456;BME280;6800;50.940;6.940;2023-04-06T02:07:13;100998.25;;;14.56;32.33
13456;BME280;6800;50.940;6.940;2023-04-06T02:11:14;100990.69;;;14.52;32.25
13456;BME280;6800;50.940;6.940;2023-04-06T02:15:16;100994.03;;;14.41;32.95
13456;BME280;6800;50.940;6.940;2023-04-06T02:19:17;100991.72;;;14.37;33.21
13456;BME280;6800;50.940;6.940;2023-04-06T02:23:18;100988.59;;;14.18;32.83
13456;BME280;6800;50.940;6.940;2023-04-06T02:27:20;100986.16;;;14.15;32.40
13456;BME280;6800;50.940;6.940;2023-04-06T02:31:22;100981.88;;;14.14;32.67
13456;BME280;6800;50.940;6.940;2023-04-06T02:35:24;100983.09;;;14.35;32.56
13456;BME280;6800;50.940;6.940;2023-04-06T02:39:26;100979.56;;;14.22;32.65
13456;BME280;6800;50.940;6.940;2023-04-06T02:43:28;100975.09;;;14.36;32.26
13456;BME280;6800;50.940;6.940;2023-04-06T02:47:29;100984.69;;;14.10;33.81
13456;BME280;6800;50.940;6.940;2023-04-06T02:51:31;100982.63;;;14.16;33.30
13456;BME280;6800;50.940;6.940;2023-04-06T02:55:32;100974.25;;;14.36;33.10
13456;BME280;6800;50.940;6.940;2023-04-06T02:59:34;100982.38;;;14.33;32.96
13456;BME280;6800;50.940;6.940;2023-04-06T03:03:35;100974.13;;;14.25;33.51
13456;BME280;6800;50.940;6.940;2023-04-06T03:07:37;100978.09;;;14.05;33.48
13456;BME280;6800;50.940;6.940;2023-04-06T03:11:38;100979.88;;;14.17;33.52
13456;BME280;6800;50.940;6.940;2023-04-06T03:15:40;100970.03;;;14.21;33.30
13456;BME280;6800;50.940;6.940;2023-04-06T03:19:41;100964.53;;;14.11;33.35
13456;BME280;6800;50.940;6.940;2023-04-06T03:23:43;100967.06;;;14.13;33.51
13456;BME280;6800;50.940;6.940;2023-04-06T03:27:44;100962.63;;;14.00;34.06
13456;BME280;6800;50.940;6.940;2023-04-06T03:31:46;100957.97;;;13.91;33.76
13456;BME280;6800;50.940;6.940;2023-04-06T03:35:47;100972.25;;;13.87;33.92
13456;BME280;6800;50.940;6.940;2023-04-06T03:39:49;100962.34;;;14.05;33.53
13456;BME280;6800;50.940;6.940;2023-04-06T03:43:50;100965.25;;;14.00;33.71
13456;BME280;6800;50.940;6.940;2023-04-06T03:47:52;100964.50;;;13.86;33.71
13456;BME280;6800;50.940;6.940;2023-04-06T03:51:53;100960.50;;;13.80;34.33
13456;BME280;6800;50.940;6.940;2023-04-06T03:55:55;100968.88;;;13.85;34.46
13456;BME280;6800;50.940;6.940;2023-04-06T03:59:56;100960.56;;;13.40;35.20
13456;BME280;6800;50.940;6.940;2023-04-06T04:03:58;100960.13;;;13.72;34.22
13456;BME280;6800;50.940;6.940;2023-04-06T04:07:59;100964.94;;;13.66;34.46
13456;BME280;6800;50.940;6.940;2023-04-06T04:12:01;100965.25;;;13.61;34.34
13456;BME280;6800;50.940;6.940;2023-04-06T04:16:03;100972.75;;;13.53;34.21
13456;BME280;6800;50.940;6.940;2023-04-06T04:20:05;100965.25;;;13.61;34.28
13456;BME280;6800;50.940;6.940;2023-04-06T04:24:07;100972.28;;;13.20;34.51
13456;BME280;6800;50.940;6.940;2023-04-06T04:28:08;100971.56;;;13.45;33.74
13456;BME280;6800;50.940;6.940;2023-04-06T04:32:09;100967.31;;;13.56;33.81
13456;BME280;6800;50.940;6.940;2023-04-06T04:36:11;100966.72;;;13.39;33.98
13456;BME280;6800;50.940;6.940;2023-04-06T04:40:13;100968.69;;;13.35;34.14
13456;BME280;6800;50.940;6.940;2023-04-06T04:44:14;100978.19;;;13.09;34.21
13456;BME280;6800;50.940;6.940;2023-04-06T04:48:19;100976.72;;;13.05;34.30
13456;BME280;6800;50.940;6.940;2023-04-06T04:52:20;100969.84;;;13.31;33.77
13456;BME280;6800;50.940;6.940;2023-04-06T04:56:22;100973.59;;;13.13;33.70
13456;BME280;6800;50.940;6.940;2023-04-06T05:00:23;100972.47;;;13.31;33.17
13456;BME280;6800;50.940;6.940;2023-04-06T05:04:25;100981.47;;;12.99;33.86
13456;BME280;6800;50.940;6.940;2023-04-06T05:08:27;100980.56;;;13.41;33.10
13456;BME280;6800;50.940;6.940;2023-04-06T05:12:28;100976.56;;;13.35;33.38
13456;BME280;6800;50.940;6.940;2023-04-06T05:16:30;100982.94;;;13.03;33.88
13456;BME280;6800;50.940;6.940;2023-04-06T05:20:31;100978.66;;;12.88;33.67
13456;BME280;6800;50.940;6.940;2023-04-06T05:24:33;100986.78;;;12.83;33.35
13456;BME280;6800;50.940;6.940;2023-04-06T05:28:36;100979.91;;;13.10;33.79
13456;BME280;6800;50.940;6.940;2023-04-06T05:32:37;100984.88;;;13.42;33.21
13456;BME280;6800;50.940;6.940;2023-04-06T05:36:39;100972.34;;;13.32;32.70
13456;BME280;6800;50.940;6.940;2023-04-06T05:40:41;100985.06;;;13.39;32.73
13456;BME280;6800;50.940;6.940;2023-04-06T05:44:43;100982.38;;;13.67;32.46
13456;BME280;6800;50.940;6.940;2023-04-06T05:48:45;100987.91;;;13.62;34.86
13456;BME280;6800;50.940;6.940;2023-04-06T05:52:46;100982.97;;;13.84;32.94
13456;BME280;6800;50.940;6.940;2023-04-06T05:56:48;100987.56;;;13.13;33.13
13456;BME280;6800;50.940;6.940;2023-04-06T06:00:49;100989.03;;;13.85;32.64
13456;BME280;6800;50.940;6.940;2023-04-06T06:04:51;100984.00;;;13.55;32.98
13456;BME280;6800;50.940;6.940;2023-04-06T06:08:52;100979.22;;;14.01;32.05
13456;BME280;6800;50.940;6.940;2023-04-06T06:12:54;100974.13;;;14.25;32.35
13456;BME280;6800;50.940;6.940;2023-04-06T06:16:56;100974.50;;;14.45;31.39
13456;BME280;6800;50.940;6.940;2023-04-06T06:20:57;100968.44;;;14.05;32.31
13456;BME280;6800;50.940;6.940;2023-04-06T06:24:59;100972.09;;;14.03;32.85
13456;BME280;6800;50.940;6.940;2023-04-06T06:29:01;100963.97;;;14.45;32.32
13456;BME280;6800;50.940;6.940;2023-04-06T06:33:02;100976.06;;;14.48;32.05
13456;BME280;6800;50.940;6.940;2023-04-06T06:37:05;100972.91;;;14.80;31.71
13456;BME280;6800;50.940;6.940;2023-04-06T06:41:07;100970.78;;;14.85;31.62
13456;BME280;6800;50.940;6.940;2023-04-06T06:45:08;100973.59;;;15.20;31.17
13456;BME280;6800;50.940;6.940;2023-04-06T06:49:10;100966.38;;;15.47;30.72
13456;BME280;6800;50.940;6.940;2023-04-06T06:53:13;100969.75;;;15.37;30.58
13456;BME280;6800;50.940;6.940;2023-04-06T06:57:15;100964.75;;;16.16;29.93
13456;BME280;6800;50.940;6.940;2023-04-06T07:01:16;100969.50;;;16.11;29.80
13456;BME280;6800;50.940;6.940;2023-04-06T07:05:18;100959.09;;;16.55;29.32
13456;BME280;6800;50.940;6.940;2023-04-06T07:09:28;100957.41;;;17.21;28.20
13456;BME280;6800;50.940;6.940;2023-04-06T07:13:30;100944.16;;;17.54;28.20
13456;BME280;6800;50.940;6.940;2023-04-06T07:17:31;100940.59;;;18.79;26.81
13456;BME280;6800;50.940;6.940;2023-04-06T07:21:33;100938.16;;;20.03;25.45
13456;BME280;6800;50.940;6.940;2023-04-06T07:25:34;100937.56;;;20.84;23.69
13456;BME280;6800;50.940;6.940;2023-04-06T07:29:35;100938.69;;;19.49;24.72
13456;BME280;6800;50.940;6.940;2023-04-06T07:33:37;100937.69;;;19.31;25.45
13456;BME280;6800;50.940;6.940;2023-04-06T07:37:38;100933.72;;;20.96;23.80
13456;BME280;6800;50.940;6.940;2023-04-06T07:41:40;100931.59;;;21.71;22.98
13456;BME280;6800;50.940;6.940;2023-04-06T07:45:41;100925.00;;;21.13;23.01
13456;BME280;6800;50.940;6.940;2023-04-06T07:49:43;100925.88;;;21.04;23.13
13456;BME280;6800;50.940;6.940;2023-04-06T07:53:44;100928.38;;;21.50;22.60
13456;BME280;6800;50.940;6.940;2023-04-06T07:57:46;100925.25;;;22.08;22.17
13456;BME280;6800;50.940;6.940;2023-04-06T08:01:47;100921.78;;;22.33;22.21
13456;BME280;6800;50.940;6.940;2023-04-06T08:05:48;100912.38;;;22.21;22.09
13456;BME280;6800;50.940;6.940;2023-04-06T08:09:51;100922.94;;;21.87;22.52
13456;BME280;6800;50.940;6.940;2023-04-06T08:13:53;100916.09;;;21.49;22.59
13456;BME280;6800;50.940;6.940;2023-04-06T08:17:55;100910.97;;;23.44;21.09
13456;BME280;6800;50.940;6.940;2023-04-06T08:21:58;100917.13;;;23.36;21.20
13456;BME280;6800;50.940;6.940;2023-04-06T08:25:59;100920.31;;;22.98;20.61
13456;BME280;6800;50.940;6.940;2023-04-06T08:30:01;100913.31;;;23.63;20.82
13456;BME280;6800;50.940;6.940;2023-04-06T08:34:03;100906.91;;;24.68;20.01
13456;BME280;6800;50.940;6.940;2023-04-06T08:38:05;100908.53;;;24.07;20.53
13456;BME280;6800;50.940;6.940;2023-04-06T08:42:12;100909.00;;;24.02;20.95
13456;BME280;6800;50.940;6.940;2023-04-06T08:46:17;100904.69;;;23.85;21.83
13456;BME280;6800;50.940;6.940;2023-04-06T08:50:20;100904.84;;;23.75;20.87
13456;BME280;6800;50.940;6.940;2023-04-06T08:54:22;100902.50;;;23.96;20.64
13456;BME280;6800;50.940;6.940;2023-04-06T08:58:24;100893.50;;;23.49;21.03
13456;BME280;6800;50.940;6.940;2023-04-06T09:02:39;100894.69;;;23.71;21.50
13456;BME280;6800;50.940;6.940;2023-04-06T09:06:43;100889.16;;;24.84;19.75
13456;BME280;6800;50.940;6.940;2023-04-06T09:10:44;100873.44;;;26.54;18.65
13456;BME280;6800;50.940;6.940;2023-04-06T09:14:46;100876.97;;;26.40;18.22
13456;BME280;6800;50.940;6.940;2023-04-06T09:18:48;100882.88;;;26.35;18.87
13456;BME280;6800;50.940;6.940;2023-04-06T09:22:50;100885.00;;;26.10;19.00
13456;BME280;6800;50.940;6.940;2023-04-06T09:26:51;100873.94;;;26.57;18.56
13456;BME280;6800;50.940;6.940;2023-04-06T09:30:52;100882.19;;;25.36;19.92
13456;BME280;6800;50.940;6.940;2023-04-06T09:34:54;100880.00;;;23.91;21.19
13456;BME280;6800;50.940;6.940;2023-04-06T09:39:06;100870.72;;;24.50;20.81
13456;BME280;6800;50.940;6.940;2023-04-06T09:43:09;100867.75;;;25.22;20.19
13456;BME280;6800;50.940;6.940;2023-04-06T09:47:11;100877.25;;;24.47;20.66
13456;BME280;6800;50.940;6.940;2023-04-06T09:51:13;100866.00;;;25.97;19.71
13456;BME280;6800;50.940;6.940;2023-04-06T09:55:40;100864.31;;;26.63;19.19
13456;BME280;6800;50.940;6.940;2023-04-06T10:00:03;100866.72;;;26.58;19.16
13456;BME280;6800;50.940;6.940;2023-04-06T10:04:37;100857.44;;;28.50;17.37
13456;BME280;6800;50.940;6.940;2023-04-06T10:08:45;100853.88;;;28.37;17.86
13456;BME280;6800;50.940;6.940;2023-04-06T10:12:48;100846.22;;;30.20;15.79
13456;BME280;6800;50.940;6.940;2023-04-06T10:16:50;100850.97;;;29.33;16.70
13456;BME280;6800;50.940;6.940;2023-04-06T10:21:00;100848.56;;;30.74;15.37
13456;BME280;6800;50.940;6.940;2023-04-06T10:25:03;100842.88;;;30.25;15.91
13456;BME280;6800;50.940;6.940;2023-04-06T10:29:05;100853.97;;;27.95;17.91
13456;BME280;6800;50.940;6.940;2023-04-06T10:33:17;100837.16;;;26.80;19.43
13456;BME280;6800;50.940;6.940;2023-04-06T10:37:18;100844.47;;;26.28;19.60
13456;BME280;6800;50.940;6.940;2023-04-06T10:41:21;100843.53;;;26.65;19.03
13456;BME280;6800;50.940;6.940;2023-04-06T10:45:24;100838.41;;;25.82;19.66
13456;BME280;6800;50.940;6.940;2023-04-06T10:49:26;100827.88;;;26.83;19.61
13456;BME280;6800;50.940;6.940;2023-04-06T10:53:28;100827.50;;;25.84;18.89
13456;BME280;6800;50.940;6.940;2023-04-06T10:57:29;100837.03;;;26.01;18.78
13456;BME280;6800;50.940;6.940;2023-04-06T11:01:33;100834.28;;;26.09;19.05
13456;BME280;6800;50.940;6.940;2023-04-06T11:05:35;100824.59;;;26.52;18.74
13456;BME280;6800;50.940;6.940;2023-04-06T11:09:36;100821.81;;;26.89;18.78
13456;BME280;6800;50.940;6.940;2023-04-06T11:13:44;100828.19;;;26.15;19.21
13456;BME280;6800;50.940;6.940;2023-04-06T11:17:46;100823.47;;;27.11;18.47
13456;BME280;6800;50.940;6.940;2023-04-06T11:21:48;100828.53;;;27.21;18.31
13456;BME280;6800;50.940;6.940;2023-04-06T11:25:53;100832.78;;;27.15;18.08
13456;BME280;6800;50.940;6.940;2023-04-06T11:29:55;100822.31;;;26.99;18.12
13456;BME280;6800;50.940;6.940;2023-04-06T11:33:57;100838.53;;;25.66;19.03
13456;BME280;6800;50.940;6.940;2023-04-06T11:37:58;100818.41;;;26.80;17.85
13456;BME280;6800;50.940;6.940;2023-04-06T11:42:03;100818.19;;;27.18;17.75
13456;BME280;6800;50.940;6.940;2023-04-06T11:46:09;100818.00;;;27.40;17.70
13456;BME280;6800;50.940;6.940;2023-04-06T11:50:13;100813.84;;;26.81;18.11
13456;BME280;6800;50.940;6.940;2023-04-06T11:54:15;100804.78;;;26.32;18.68
13456;BME280;6800;50.940;6.940;2023-04-06T11:58:18;100811.84;;;25.95;18.83
13456;BME280;6800;50.940;6.940;2023-04-06T12:02:19;100812.59;;;26.04;18.97
13456;BME280;6800;50.940;6.940;2023-04-06T12:06:21;100806.13;;;25.46;19.12
13456;BME280;6800;50.940;6.940;2023-04-06T12:10:22;100809.47;;;25.63;19.14
13456;BME280;6800;50.940;6.940;2023-04-06T12:14:24;100802.06;;;26.61;18.40
13456;BME280;6800;50.940;6.940;2023-04-06T12:18:25;100797.19;;;27.42;17.66
13456;BME280;6800;50.940;6.940;2023-04-06T12:22:27;100799.97;;;26.27;17.98
13456;BME280;6800;50.940;6.940;2023-04-06T12:26:29;100796.03;;;27.09;17.66
13456;BME280;6800;50.940;6.940;2023-04-06T12:30:31;100802.28;;;27.16;17.47
13456;BME280;6800;50.940;6.940;2023-04-06T12:34:33;100799.13;;;26.41;17.87
13456;BME280;6800;50.940;6.940;2023-04-06T12:38:34;100799.88;;;24.39;20.75
13456;BME280;6800;50.940;6.940;2023-04-06T12:42:39;100804.94;;;24.65;20.31
13456;BME280;6800;50.940;6.940;2023-04-06T12:46:42;100804.16;;;25.78;19.45
13456;BME280;6800;50.940;6.940;2023-04-06T12:50:44;100806.72;;;25.71;19.94
13456;BME280;6800;50.940;6.940;2023-04-06T12:54:47;100805.16;;;26.14;19.61
13456;BME280;6800;50.940;6.940;2023-04-06T12:58:51;100798.56;;;25.87;19.11
13456;BME280;6800;50.940;6.940;2023-04-06T13:02:53;100800.09;;;26.19;19.92
13456;BME280;6800;50.940;6.940;2023-04-06T13:06:54;100809.31;;;25.79;20.19
13456;BME280;6800;50.940;6.940;2023-04-06T13:10:56;100807.81;;;25.39;21.22
13456;BME280;6800;50.940;6.940;2023-04-06T13:14:57;100806.84;;;25.78;20.44
13456;BME280;6800;50.940;6.940;2023-04-06T13:18:59;100813.72;;;24.73;21.95
13456;BME280;6800;50.940;6.940;2023-04-06T13:23:01;100807.56;;;24.81;22.13
13456;BME280;6800;50.940;6.940;2023-04-06T13:27:03;100804.53;;;25.07;22.59
13456;BME280;6800;50.940;6.940;2023-04-06T13:31:05;100799.78;;;24.94;22.22
13456;BME280;6800;50.940;6.940;2023-04-06T13:35:07;100802.94;;;24.28;22.57
13456;BME280;6800;50.940;6.940;2023-04-06T13:39:09;100810.44;;;24.25;22.78
13456;BME280;6800;50.940;6.940;2023-04-06T13:43:11;100822.00;;;23.85;23.04
13456;BME280;6800;50.940;6.940;2023-04-06T13:47:12;100813.13;;;24.17;23.21
13456;BME280;6800;50.940;6.940;2023-04-06T13:51:14;100817.50;;;23.29;24.14
13456;BME280;6800;50.940;6.940;2023-04-06T13:55:16;100829.78;;;22.22;25.75
13456;BME280;6800;50.940;6.940;2023-04-06T13:59:17;100821.38;;;22.01;26.23
13456;BME280;6800;50.940;6.940;2023-04-06T14:03:19;100825.28;;;21.71;26.48
13456;BME280;6800;50.940;6.940;2023-04-06T14:07:21;100832.59;;;22.21;26.38
13456;BME280;6800;50.940;6.940;2023-04-06T14:11:24;100830.81;;;22.04;27.50
13456;BME280;6800;50.940;6.940;2023-04-06T14:15:26;100829.63;;;22.24;27.57
13456;BME280;6800;50.940;6.940;2023-04-06T14:19:29;100833.03;;;22.42;28.14
13456;BME280;6800;50.940;6.940;2023-04-06T14:23:31;100838.06;;;21.33;29.74
13456;BME280;6800;50.940;6.940;2023-04-06T14:27:34;100843.00;;;20.56;30.65
13456;BME280;6800;50.940;6.940;2023-04-06T14:31:36;100840.78;;;21.23;30.64
13456;BME280;6800;50.940;6.940;2023-04-06T14:35:38;100840.69;;;21.68;29.53
13456;BME280;6800;50.940;6.940;2023-04-06T14:39:40;100839.25;;;21.73;29.70
13456;BME280;6800;50.940;6.940;2023-04-06T14:43:41;100819.69;;;21.39;30.30
13456;BME280;6800;50.940;6.940;2023-04-06T14:47:43;100830.13;;;20.61;32.53
13456;BME280;6800;50.940;6.940;2023-04-06T14:51:44;100828.19;;;21.08;32.07
13456;BME280;6800;50.940;6.940;2023-04-06T14:55:46;100832.53;;;20.54;33.42
13456;BME280;6800;50.940;6.940;2023-04-06T14:59:48;100820.91;;;21.27;32.79
13456;BME280;6800;50.940;6.940;2023-04-06T15:03:49;100831.75;;;20.89;34.19
13456;BME280;6800;50.940;6.940;2023-04-06T15:07:51;100830.03;;;20.06;35.60
13456;BME280;6800;50.940;6.940;2023-04-06T15:11:52;100825.19;;;20.93;35.31
13456;BME280;6800;50.940;6.940;2023-04-06T15:15:53;100830.91;;;20.44;35.91
13456;BME280;6800;50.940;6.940;2023-04-06T15:19:55;100835.13;;;19.71;37.83
13456;BME280;6800;50.940;6.940;2023-04-06T15:23:56;100826.47;;;19.21;39.15
13456;BME280;6800;50.940;6.940;2023-04-06T15:27:58;100821.75;;;19.25;38.98
13456;BME280;6800;50.940;6.940;2023-04-06T15:32:02;100831.22;;;19.18;39.99
13456;BME280;6800;50.940;6.940;2023-04-06T15:36:10;100824.72;;;19.51;39.93
13456;BME280;6800;50.940;6.940;2023-04-06T15:40:20;100831.66;;;19.23;40.86
13456;BME280;6800;50.940;6.940;2023-04-06T15:44:21;100826.72;;;18.80;41.59
13456;BME280;6800;50.940;6.940;2023-04-06T15:48:23;100822.16;;;18.22;42.92
13456;BME280;6800;50.940;6.940;2023-04-06T15:52:25;100827.28;;;18.44;43.53
13456;BME280;6800;50.940;6.940;2023-04-06T15:56:27;100824.22;;;18.18;43.69
13456;BME280;6800;50.940;6.940;2023-04-06T16:00:28;100820.88;;;18.77;42.64
13456;BME280;6800;50.940;6.940;2023-04-06T16:04:29;100825.34;;;19.05;42.82
13456;BME280;6800;50.940;6.940;2023-04-06T16:08:31;100824.63;;;18.74;43.12
13456;BME280;6800;50.940;6.940;2023-04-06T16:12:32;100826.97;;;18.67;43.71
13456;BME280;6800;50.940;6.940;2023-04-06T16:16:34;100827.09;;;18.66;43.75
13456;BME280;6800;50.940;6.940;2023-04-06T16:20:35;100830.50;;;18.17;45.59
13456;BME280;6800;50.940;6.940;2023-04-06T16:24:37;100827.50;;;18.31;44.94
13456;BME280;6800;50.940;6.940;2023-04-06T16:28:38;100827.94;;;18.06;45.91
13456;BME280;6800;50.940;6.940;2023-04-06T16:32:40;100832.00;;;18.40;44.94
13456;BME280;6800;50.940;6.940;2023-04-06T16:36:43;100833.47;;;18.03;45.72
13456;BME280;6800;50.940;6.940;2023-04-06T16:40:44;100829.44;;;18.29;46.06
13456;BME280;6800;50.940;6.940;2023-04-06T16:44:47;100828.66;;;18.38;45.46
13456;BME280;6800;50.940;6.940;2023-04-06T16:48:51;100833.31;;;17.74;47.10
13456;BME280;6800;50.940;6.940;2023-04-06T16:52:53;100832.34;;;17.96;46.24
13456;BME280;6800;50.940;6.940;2023-04-06T16:56:54;100829.88;;;17.63;47.25
13456;BME280;6800;50.940;6.940;2023-04-06T17:00:56;100840.09;;;17.56;47.26
13456;BME280;6800;50.940;6.940;2023-04-06T17:05:02;100825.69;;;17.60;46.56
13456;BME280;6800;50.940;6.940;2023-04-06T17:09:04;100820.53;;;17.27;48.16
13456;BME280;6800;50.940;6.940;2023-04-06T17:13:05;100822.72;;;17.54;48.12
13456;BME280;6800;50.940;6.940;2023-04-06T17:17:07;100828.97;;;17.53;47.52
13456;BME280;6800;50.940;6.940;2023-04-06T17:21:09;100814.84;;;17.43;48.27
13456;BME280;6800;50.940;6.940;2023-04-06T17:25:15;100818.00;;;18.19;46.82
13456;BME280;6800;50.940;6.940;2023-04-06T17:29:16;100825.03;;;17.47;49.06
13456;BME280;6800;50.940;6.940;2023-04-06T17:33:18;100821.13;;;18.13;47.19
13456;BME280;6800;50.940;6.940;2023-04-06T17:37:19;100818.72;;;17.39;48.65
13456;BME280;6800;50.940;6.940;2023-04-06T17:41:21;100822.47;;;17.57;48.22
13456;BME280;6800;50.940;6.940;2023-04-06T17:45:22;100826.03;;;17.35;48.95
13456;BME280;6800;50.940;6.940;2023-04-06T17:49:24;100825.31;;;17.01;49.65
13456;BME280;6800;50.940;6.940;2023-04-06T17:53:25;100810.13;;;17.57;48.85
13456;BME280;6800;50.940;6.940;2023-04-06T17:57:30;100815.97;;;17.29;48.83
13456;BME280;6800;50.940;6.940;2023-04-06T18:01:32;100815.88;;;17.92;48.06
13456;BME280;6800;50.940;6.940;2023-04-06T18:05:34;100827.03;;;16.91;50.32
13456;BME280;6800;50.940;6.940;2023-04-06T18:09:38;100820.97;;;16.58;51.40
13456;BME280;6800;50.940;6.940;2023-04-06T18:13:39;100824.28;;;16.82;50.52
13456;BME280;6800;50.940;6.940;2023-04-06T18:17:41;100823.16;;;17.38;49.13
13456;BME280;6800;50.940;6.940;2023-04-06T18:21:43;100817.72;;;17.51;48.94
13456;BME280;6800;50.940;6.940;2023-04-06T18:25:44;100817.16;;;17.36;49.29
13456;BME280;6800;50.940;6.940;2023-04-06T18:29:46;100808.19;;;17.28;49.00
13456;BME280;6800;50.940;6.940;2023-04-06T18:33:47;100816.66;;;17.10;49.51
13456;BME280;6800;50.940;6.940;2023-04-06T18:37:49;100812.06;;;16.81;49.81
13456;BME280;6800;50.940;6.940;2023-04-06T18:41:51;100798.25;;;16.88;49.31
13456;BME280;6800;50.940;6.940;2023-04-06T18:45:52;100799.03;;;16.68;49.91
13456;BME280;6800;50.940;6.940;2023-04-06T18:49:53;100806.22;;;16.44;50.37
13456;BME280;6800;50.940;6.940;2023-04-06T18:53:55;100801.72;;;17.00;49.04
13456;BME280;6800;50.940;6.940;2023-04-06T18:57:56;100802.00;;;17.17;48.15
13456;BME280;6800;50.940;6.940;2023-04-06T19:01:58;100803.22;;;16.49;49.44
13456;BME280;6800;50.940;6.940;2023-04-06T19:05:59;100792.78;;;17.12;48.37
13456;BME280;6800;50.940;6.940;2023-04-06T19:10:01;100790.00;;;17.13;48.82
13456;BME280;6800;50.940;6.940;2023-04-06T19:14:02;100790.34;;;16.88;49.59
13456;BME280;6800;50.940;6.940;2023-04-06T19:18:04;100795.19;;;17.36;48.74
13456;BME280;6800;50.940;6.940;2023-04-06T19:22:05;100794.88;;;17.29;48.78
13456;BME280;6800;50.940;6.940;2023-04-06T19:26:11;100792.16;;;17.72;47.90
13456;BME280;6800;50.940;6.940;2023-04-06T19:30:13;100787.03;;;17.39;48.43
13456;BME280;6800;50.940;6.940;2023-04-06T19:34:14;100781.47;;;16.89;50.14
13456;BME280;6800;50.940;6.940;2023-04-06T19:38:17;100776.34;;;17.20;48.77
13456;BME280;6800;50.940;6.940;2023-04-06T19:42:19;100776.09;;;16.80;50.06
13456;BME280;6800;50.940;6.940;2023-04-06T19:46:21;100769.69;;;17.04;49.79
13456;BME280;6800;50.940;6.940;2023-04-06T19:50:23;100781.38;;;16.80;49.81
13456;BME280;6800;50.940;6.940;2023-04-06T19:54:24;100771.59;;;17.96;47.19
13456;BME280;6800;50.940;6.940;2023-04-06T19:58:26;100773.69;;;17.81;47.74
13456;BME280;6800;50.940;6.940;2023-04-06T20:02:28;100771.28;;;17.69;47.31
13456;BME280;6800;50.940;6.940;2023-04-06T20:06:29;100777.13;;;16.99;48.91
13456;BME280;6800;50.940;6.940;2023-04-06T20:10:31;100773.56;;;17.21;48.14
13456;BME280;6800;50.940;6.940;2023-04-06T20:14:32;100776.91;;;17.44;48.09
13456;BME280;6800;50.940;6.940;2023-04-06T20:18:34;100767.13;;;17.66;47.52
13456;BME280;6800;50.940;6.940;2023-04-06T20:22:36;100758.16;;;17.58;47.38
13456;BME280;6800;50.940;6.940;2023-04-06T20:26:37;100760.22;;;17.75;46.96
13456;BME280;6800;50.940;6.940;2023-04-06T20:30:39;100758.56;;;17.53;47.74
13456;BME280;6800;50.940;6.940;2023-04-06T20:34:40;100761.09;;;17.44;47.45
13456;BME280;6800;50.940;6.940;2023-04-06T20:38:42;100756.06;;;17.82;46.53
13456;BME280;6800;50.940;6.940;2023-04-06T20:42:43;100745.53;;;17.41;47.70
13456;BME280;6800;50.940;6.940;2023-04-06T20:46:44;100754.19;;;17.32;47.39
13456;BME280;6800;50.940;6.940;2023-04-06T20:50:46;100746.25;;;17.63;47.70
13456;BME280;6800;50.940;6.940;2023-04-06T20:54:47;100747.13;;;17.73;46.73
13456;BME280;6800;50.940;6.940;2023-04-06T20:58:50;100743.06;;;17.69;46.83
13456;BME280;6800;50.940;6.940;2023-04-06T21:02:52;100735.22;;;17.38;47.35
13456;BME280;6800;50.940;6.940;2023-04-06T21:06:53;100734.69;;;17.23;48.21
13456;BME280;6800;50.940;6.940;2023-04-06T21:10:55;100724.19;;;18.04;46.33
13456;BME280;6800;50.940;6.940;2023-04-06T21:14:56;100725.69;;;17.97;46.56
13456;BME280;6800;50.940;6.940;2023-04-06T21:18:58;100717.34;;;18.41;45.84
13456;BME280;6800;50.940;6.940;2023-04-06T21:22:59;100709.41;;;17.92;46.74